Time;durP1;ratioP1;P1;durP2;ratioP2;P2;SDS_P1;SDS_P2;PMS_P1;PMS_P2;Temp;Humidity;BMP_temperature;BMP_pressure;BME280_temperature;BME280_humidity;BME280_pressure;Samples;Min_cycle;Max_cycle;Signal;HPM_P1;HPM_P2
2022/03/02 00:00:41;;;;;;;17.90;10.18;;;;;;;;;;5054896;28;20028;-56
2022/03/02 00:03:06;;;;;;;17.83;9.20;;;;;;;;;;5063845;28;20040;-57
2022/03/02 00:05:33;;;;;;;18.90;9.05;;;;;;;;;;5059777;28;20225;-55
2022/03/02 00:07:59;;;;;;;21.13;9.77;;;;;;;;;;5063961;28;20117;-56
2022/03/02 00:10:24;;;;;;;19.65;9.70;;;;;;;;;;5062424;28;20127;-57
2022/03/02 00:12:49;;;;;;;18.55;9.88;;;;;;;;;;5064350;28;20027;-56
2022/03/02 00:15:15;;;;;;;21.13;9.18;;;;;;;;;;5059964;28;20037;-57
2022/03/02 00:17:41;;;;;;;20.05;9.35;;;;;;;;;;5061558;28;20033;-59
2022/03/02 00:20:07;;;;;;;19.05;9.68;;;;;;;;;;5063481;28;20029;-57
2022/03/02 00:22:32;;;;;;;16.70;9.18;;;;;;;;;;5060616;28;20039;-57
2022/03/02 00:24:58;;;;;;;16.10;8.50;;;;;;;;;;5059867;28;20119;-56
2022/03/02 00:27:23;;;;;;;18.10;8.93;;;;;;;;;;5062213;28;20028;-56
2022/03/02 00:29:50;;;;;;;17.85;9.10;;;;;;;;;;5057206;28;20025;-59
2022/03/02 00:32:15;;;;;;;16.35;8.48;;;;;;;;;;5058176;28;20028;-58
2022/03/02 00:34:41;;;;;;;17.48;8.63;;;;;;;;;;5060835;28;20021;-58
2022/03/02 00:37:07;;;;;;;17.63;8.50;;;;;;;;;;5060385;28;20043;-58
2022/03/02 00:39:33;;;;;;;15.27;8.60;;;;;;;;;;5057040;28;20037;-58
2022/03/02 00:41:58;;;;;;;14.23;8.68;;;;;;;;;;5063491;28;20028;-56
2022/03/02 00:44:24;;;;;;;21.27;9.57;;;;;;;;;;5063143;28;20016;-57
2022/03/02 00:46:49;;;;;;;17.75;8.60;;;;;;;;;;5062038;28;20587;-58
2022/03/02 00:49:16;;;;;;;17.33;9.00;;;;;;;;;;5064845;28;20472;-58
2022/03/02 00:51:42;;;;;;;17.67;8.80;;;;;;;;;;5062878;28;20074;-54
2022/03/02 00:54:08;;;;;;;17.27;8.65;;;;;;;;;;5054629;28;20036;-57
2022/03/02 00:56:33;;;;;;;21.90;9.45;;;;;;;;;;5057668;28;20037;-57
2022/03/02 00:58:59;;;;;;;23.63;11.23;;;;;;;;;;5062619;28;20028;-56
2022/03/02 01:01:24;;;;;;;21.02;10.93;;;;;;;;;;5063706;28;20395;-57
2022/03/02 01:03:50;;;;;;;29.27;12.00;;;;;;;;;;5062568;28;20282;-56
2022/03/02 01:06:16;;;;;;;26.38;12.98;;;;;;;;;;5061437;28;20027;-57
2022/03/02 01:08:42;;;;;;;16.33;9.07;;;;;;;;;;5057102;28;20035;-57
2022/03/02 01:11:07;;;;;;;18.10;8.25;;;;;;;;;;5053719;28;20115;-57
2022/03/02 01:13:33;;;;;;;14.93;8.20;;;;;;;;;;5061311;28;20063;-58
2022/03/02 01:15:59;;;;;;;18.77;9.30;;;;;;;;;;5064185;28;20032;-58
2022/03/02 01:18:24;;;;;;;22.58;11.10;;;;;;;;;;5061151;28;20028;-58
2022/03/02 01:20:50;;;;;;;34.90;14.98;;;;;;;;;;5056872;28;20511;-57
2022/03/02 01:23:15;;;;;;;36.30;16.13;;;;;;;;;;5059349;28;20060;-57
2022/03/02 01:25:41;;;;;;;34.85;16.00;;;;;;;;;;5054190;28;20111;-55
2022/03/02 01:28:06;;;;;;;34.72;16.52;;;;;;;;;;5058396;28;20056;-57
2022/03/02 01:30:31;;;;;;;34.50;16.65;;;;;;;;;;5053955;28;20033;-57
2022/03/02 01:32:57;;;;;;;34.42;16.17;;;;;;;;;;5056986;28;20029;-55
2022/03/02 01:35:22;;;;;;;33.30;15.68;;;;;;;;;;5060815;28;20071;-57
2022/03/02 01:37:50;;;;;;;41.22;17.48;;;;;;;;;;5052088;28;20032;-57
2022/03/02 01:40:16;;;;;;;34.53;17.38;;;;;;;;;;5054785;28;20111;-57
2022/03/02 01:42:42;;;;;;;38.08;16.98;;;;;;;;;;5057877;28;20166;-57
2022/03/02 01:45:10;;;;;;;40.55;17.88;;;;;;;;;;5055668;28;20074;-58
2022/03/02 01:47:35;;;;;;;37.85;17.17;;;;;;;;;;5058766;28;20294;-55
2022/03/02 01:50:02;;;;;;;37.83;16.58;;;;;;;;;;5062430;28;20024;-57
2022/03/02 01:52:28;;;;;;;38.80;17.55;;;;;;;;;;5061127;28;20035;-57
2022/03/02 01:54:53;;;;;;;42.53;18.17;;;;;;;;;;5058219;28;20024;-58
2022/03/02 01:57:19;;;;;;;36.17;17.80;;;;;;;;;;5056028;28;20103;-56
2022/03/02 01:59:45;;;;;;;45.97;19.15;;;;;;;;;;5061430;28;20025;-56
2022/03/02 02:02:10;;;;;;;36.00;17.23;;;;;;;;;;5065498;28;20028;-57
2022/03/02 02:04:36;;;;;;;33.58;15.57;;;;;;;;;;5056030;28;20033;-56
2022/03/02 02:07:02;;;;;;;35.53;17.00;;;;;;;;;;5063203;28;20577;-57
2022/03/02 02:09:28;;;;;;;34.53;16.70;;;;;;;;;;5063549;28;20606;-58
2022/03/02 02:11:54;;;;;;;35.97;16.80;;;;;;;;;;5062008;28;20036;-57
2022/03/02 02:14:19;;;;;;;33.15;16.52;;;;;;;;;;5063641;28;20332;-56
2022/03/02 02:16:45;;;;;;;31.05;16.50;;;;;;;;;;5059182;28;20033;-57
2022/03/02 02:19:10;;;;;;;35.78;16.73;;;;;;;;;;5065405;28;20056;-57
2022/03/02 02:21:36;;;;;;;34.30;16.02;;;;;;;;;;5059818;28;20033;-55
2022/03/02 02:24:01;;;;;;;32.40;15.60;;;;;;;;;;5065614;28;20411;-56
2022/03/02 02:26:27;;;;;;;32.85;15.13;;;;;;;;;;5062712;28;20031;-55
2022/03/02 02:28:54;;;;;;;31.30;15.00;;;;;;;;;;5062890;28;20389;-56
2022/03/02 02:31:20;;;;;;;30.73;14.20;;;;;;;;;;5064078;28;20391;-57
2022/03/02 02:33:46;;;;;;;28.05;12.75;;;;;;;;;;5059050;28;20028;-56
2022/03/02 02:36:12;;;;;;;25.92;12.60;;;;;;;;;;5061373;28;20085;-56
2022/03/02 02:38:38;;;;;;;30.60;13.75;;;;;;;;;;5064184;28;20048;-56
2022/03/02 02:41:03;;;;;;;30.20;13.40;;;;;;;;;;5058321;28;20206;-56
2022/03/02 02:43:29;;;;;;;25.98;12.70;;;;;;;;;;5062526;28;20028;-56
2022/03/02 02:45:55;;;;;;;28.45;12.82;;;;;;;;;;5062281;28;20058;-57
2022/03/02 02:48:20;;;;;;;28.38;13.35;;;;;;;;;;5056045;28;20111;-57
2022/03/02 02:50:46;;;;;;;24.42;12.30;;;;;;;;;;5059140;28;20059;-56
2022/03/02 02:53:12;;;;;;;31.20;13.55;;;;;;;;;;5054750;28;20028;-56
2022/03/02 02:55:39;;;;;;;24.35;12.63;;;;;;;;;;5058384;28;20032;-57
2022/03/02 02:58:05;;;;;;;22.67;12.52;;;;;;;;;;5063339;28;20032;-59
2022/03/02 03:00:34;;;;;;;29.65;12.38;;;;;;;;;;5062225;28;20165;-57
2022/03/02 03:03:00;;;;;;;27.02;12.38;;;;;;;;;;5057202;28;20020;-57
2022/03/02 03:05:29;;;;;;;25.80;13.23;;;;;;;;;;5057848;28;20843;-56
2022/03/02 03:07:55;;;;;;;26.63;13.13;;;;;;;;;;5053553;28;20040;-55
2022/03/02 03:10:21;;;;;;;33.72;13.35;;;;;;;;;;5067426;28;20040;-56
2022/03/02 03:12:47;;;;;;;26.30;12.38;;;;;;;;;;5062577;28;20090;-56
2022/03/02 03:15:16;;;;;;;23.83;12.93;;;;;;;;;;5065018;28;20111;-56
2022/03/02 03:17:43;;;;;;;28.13;13.27;;;;;;;;;;5059824;28;20032;-56
2022/03/02 03:20:10;;;;;;;27.33;12.45;;;;;;;;;;5062438;28;20257;-57
2022/03/02 03:22:37;;;;;;;32.63;13.73;;;;;;;;;;5061541;28;20055;-54
2022/03/02 03:25:03;;;;;;;30.50;13.60;;;;;;;;;;5062814;28;20120;-55
2022/03/02 03:27:29;;;;;;;35.75;14.27;;;;;;;;;;5054597;28;20204;-57
2022/03/02 03:29:54;;;;;;;31.65;12.70;;;;;;;;;;5063266;28;20029;-56
2022/03/02 03:32:20;;;;;;;32.88;14.40;;;;;;;;;;5060824;28;20563;-57
2022/03/02 03:34:46;;;;;;;30.58;13.68;;;;;;;;;;5061202;28;20022;-54
2022/03/02 03:37:12;;;;;;;32.53;13.70;;;;;;;;;;5065213;28;20504;-57
2022/03/02 03:39:37;;;;;;;31.13;14.68;;;;;;;;;;5065707;28;20322;-57
2022/03/02 03:42:03;;;;;;;32.25;14.70;;;;;;;;;;5063294;28;20129;-56
2022/03/02 03:44:28;;;;;;;33.38;14.63;;;;;;;;;;5066803;28;20054;-56
2022/03/02 03:46:54;;;;;;;38.22;16.65;;;;;;;;;;5057906;28;20036;-57
2022/03/02 03:49:19;;;;;;;30.27;13.23;;;;;;;;;;5055696;28;20032;-56
2022/03/02 03:51:45;;;;;;;33.50;14.23;;;;;;;;;;5060073;28;20048;-56
2022/03/02 03:54:11;;;;;;;35.15;15.10;;;;;;;;;;5061579;28;20021;-59
2022/03/02 03:56:37;;;;;;;32.72;14.70;;;;;;;;;;5062925;28;20509;-57
2022/03/02 03:59:04;;;;;;;33.85;14.35;;;;;;;;;;5059302;28;20037;-57
2022/03/02 04:01:30;;;;;;;29.92;13.88;;;;;;;;;;5058605;28;20024;-58
2022/03/02 04:03:55;;;;;;;29.38;13.43;;;;;;;;;;5057099;28;20032;-58
2022/03/02 04:06:20;;;;;;;32.78;14.73;;;;;;;;;;5061490;28;20463;-56
2022/03/02 04:08:49;;;;;;;33.13;14.13;;;;;;;;;;5063513;28;20086;-57
2022/03/02 04:11:14;;;;;;;31.45;14.18;;;;;;;;;;5058743;28;20024;-57
2022/03/02 04:13:40;;;;;;;31.98;14.25;;;;;;;;;;5061059;28;20066;-57
2022/03/02 04:16:06;;;;;;;32.50;14.45;;;;;;;;;;5063413;28;20112;-55
2022/03/02 04:18:32;;;;;;;60.97;17.67;;;;;;;;;;5061182;28;20032;-55
2022/03/02 04:21:01;;;;;;;33.28;14.65;;;;;;;;;;5057451;28;20487;-57
2022/03/02 04:23:27;;;;;;;34.70;14.75;;;;;;;;;;5065943;28;20032;-55
2022/03/02 04:25:53;;;;;;;30.63;13.38;;;;;;;;;;5055774;28;20024;-58
2022/03/02 04:28:19;;;;;;;31.70;14.45;;;;;;;;;;5061259;28;20270;-56
2022/03/02 04:30:45;;;;;;;33.00;15.40;;;;;;;;;;5062051;28;20082;-57
2022/03/02 04:33:12;;;;;;;33.53;14.55;;;;;;;;;;5058665;28;20029;-57
2022/03/02 04:35:38;;;;;;;28.30;13.52;;;;;;;;;;5060606;28;20029;-57
2022/03/02 04:38:04;;;;;;;31.20;14.05;;;;;;;;;;5057856;28;20443;-56
2022/03/02 04:40:29;;;;;;;31.45;13.52;;;;;;;;;;5056908;28;20027;-57
2022/03/02 04:42:55;;;;;;;31.95;13.38;;;;;;;;;;5052252;28;20056;-56
2022/03/02 04:45:25;;;;;;;34.30;13.75;;;;;;;;;;5065080;28;20070;-57
2022/03/02 04:47:51;;;;;;;28.08;12.55;;;;;;;;;;5062869;28;20063;-54
2022/03/02 04:50:19;;;;;;;25.58;12.05;;;;;;;;;;5061917;28;20067;-56
2022/03/02 04:52:45;;;;;;;32.72;12.18;;;;;;;;;;5058749;28;20029;-55
2022/03/02 04:55:10;;;;;;;31.55;13.18;;;;;;;;;;5063210;28;20026;-55
2022/03/02 04:57:48;;;;;;;30.85;13.75;;;;;;;;;;5061449;28;20028;-54
2022/03/02 05:00:18;;;;;;;26.38;12.80;;;;;;;;;;5062926;28;20032;-57
2022/03/02 05:02:44;;;;;;;30.23;12.20;;;;;;;;;;5052301;28;20025;-57
2022/03/02 05:05:13;;;;;;;22.45;10.90;;;;;;;;;;5060144;28;20381;-56
2022/03/02 05:07:39;;;;;;;26.80;12.30;;;;;;;;;;5059152;28;20028;-56
2022/03/02 05:10:06;;;;;;;28.88;12.40;;;;;;;;;;5056400;28;20495;-55
2022/03/02 05:12:32;;;;;;;32.47;14.07;;;;;;;;;;5061771;28;20047;-57
2022/03/02 05:14:57;;;;;;;34.70;14.38;;;;;;;;;;5059523;28;20033;-55
2022/03/02 05:17:23;;;;;;;26.20;12.95;;;;;;;;;;5055267;28;20170;-54
2022/03/02 05:19:49;;;;;;;29.65;12.95;;;;;;;;;;5057924;28;20056;-57
2022/03/02 05:22:15;;;;;;;24.23;11.98;;;;;;;;;;5057797;28;20133;-56
2022/03/02 05:24:41;;;;;;;28.73;10.88;;;;;;;;;;5061305;28;20516;-57
2022/03/02 05:27:07;;;;;;;32.10;11.30;;;;;;;;;;5056386;28;20450;-56
2022/03/02 05:29:33;;;;;;;29.60;11.52;;;;;;;;;;5051803;28;20443;-56
2022/03/02 05:31:59;;;;;;;22.90;11.18;;;;;;;;;;5052156;28;20056;-57
2022/03/02 05:34:24;;;;;;;25.27;11.90;;;;;;;;;;5048156;28;20118;-57
2022/03/02 05:36:50;;;;;;;28.00;12.52;;;;;;;;;;5057011;28;20032;-57
2022/03/02 05:39:15;;;;;;;26.75;12.70;;;;;;;;;;5057206;28;20025;-55
2022/03/02 05:41:41;;;;;;;28.92;11.70;;;;;;;;;;5060467;28;20039;-57
2022/03/02 05:44:08;;;;;;;27.17;12.60;;;;;;;;;;5064398;28;20020;-56
2022/03/02 05:46:34;;;;;;;20.65;10.65;;;;;;;;;;5054684;28;20066;-56
2022/03/02 05:49:00;;;;;;;22.77;9.65;;;;;;;;;;5062965;28;20768;-56
2022/03/02 05:51:26;;;;;;;25.98;11.68;;;;;;;;;;5061379;28;20063;-54
2022/03/02 05:53:51;;;;;;;23.58;10.60;;;;;;;;;;5061612;28;20112;-57
2022/03/02 05:56:17;;;;;;;24.98;10.48;;;;;;;;;;5064053;28;20135;-54
2022/03/02 05:58:42;;;;;;;24.63;10.68;;;;;;;;;;5048843;28;20173;-56
2022/03/02 06:01:08;;;;;;;26.73;10.98;;;;;;;;;;5049256;28;20048;-54
2022/03/02 06:03:33;;;;;;;29.92;10.95;;;;;;;;;;5048543;28;20025;-55
2022/03/02 06:05:59;;;;;;;25.85;10.93;;;;;;;;;;5060535;28;20040;-56
2022/03/02 06:08:24;;;;;;;23.92;11.85;;;;;;;;;;5063184;28;20036;-56
2022/03/02 06:10:50;;;;;;;21.13;9.95;;;;;;;;;;5064513;28;20020;-55
2022/03/02 06:13:16;;;;;;;23.73;10.07;;;;;;;;;;5061170;28;20083;-55
2022/03/02 06:15:42;;;;;;;31.35;13.18;;;;;;;;;;5054813;28;20033;-56
2022/03/02 06:18:09;;;;;;;38.65;14.77;;;;;;;;;;5059044;28;20032;-55
2022/03/02 06:20:35;;;;;;;27.65;11.30;;;;;;;;;;5059938;28;20500;-55
2022/03/02 06:23:02;;;;;;;28.67;12.15;;;;;;;;;;5059644;28;20044;-57
2022/03/02 06:25:28;;;;;;;29.35;13.80;;;;;;;;;;5054566;28;20075;-56
2022/03/02 06:27:54;;;;;;;33.88;13.60;;;;;;;;;;5053020;28;20139;-56
2022/03/02 06:30:20;;;;;;;27.52;11.80;;;;;;;;;;5058559;28;20430;-57
2022/03/02 06:32:45;;;;;;;34.00;11.55;;;;;;;;;;5055312;28;20116;-57
2022/03/02 06:35:12;;;;;;;26.85;11.57;;;;;;;;;;5055460;28;20033;-57
2022/03/02 06:37:37;;;;;;;27.40;11.77;;;;;;;;;;5053077;28;20086;-56
2022/03/02 06:40:07;;;;;;;25.17;10.75;;;;;;;;;;5066464;28;20029;-56
2022/03/02 06:42:42;;;;;;;31.05;11.55;;;;;;;;;;5057636;28;20032;-56
2022/03/02 06:45:14;;;;;;;30.10;11.52;;;;;;;;;;5059590;28;20627;-52
2022/03/02 06:47:51;;;;;;;27.67;12.63;;;;;;;;;;5061587;28;20024;-56
2022/03/02 06:50:23;;;;;;;27.10;10.82;;;;;;;;;;5065941;28;20422;-52
2022/03/02 06:52:52;;;;;;;25.33;9.25;;;;;;;;;;5064349;28;20048;-57
2022/03/02 06:55:17;;;;;;;32.25;14.05;;;;;;;;;;5051470;28;20029;-55
2022/03/02 06:57:51;;;;;;;40.67;16.02;;;;;;;;;;5055300;28;20094;-56
2022/03/02 07:00:17;;;;;;;34.88;14.82;;;;;;;;;;5055697;28;20403;-56
2022/03/02 07:02:56;;;;;;;36.90;16.33;;;;;;;;;;5055951;28;20036;-57
2022/03/02 07:05:22;;;;;;;28.85;13.45;;;;;;;;;;5058761;28;20108;-56
2022/03/02 07:07:48;;;;;;;27.42;12.05;;;;;;;;;;5059183;28;20119;-56
2022/03/02 07:10:14;;;;;;;28.20;12.40;;;;;;;;;;5062517;28;20079;-56
2022/03/02 07:12:40;;;;;;;36.22;12.95;;;;;;;;;;5061256;28;20488;-57
2022/03/02 07:15:06;;;;;;;33.33;15.70;;;;;;;;;;5060135;28;20025;-55
2022/03/02 07:17:32;;;;;;;34.80;14.65;;;;;;;;;;5052448;28;20036;-57
2022/03/02 07:20:06;;;;;;;32.00;14.02;;;;;;;;;;5058840;28;20041;-57
2022/03/02 07:22:35;;;;;;;34.92;14.60;;;;;;;;;;5056413;28;20021;-57
2022/03/02 07:25:06;;;;;;;34.97;16.07;;;;;;;;;;5065291;28;20025;-56
2022/03/02 07:27:36;;;;;;;36.10;15.88;;;;;;;;;;5055804;28;20048;-56
2022/03/02 07:30:01;;;;;;;33.80;15.95;;;;;;;;;;5057654;28;20032;-56
2022/03/02 07:32:32;;;;;;;34.70;15.73;;;;;;;;;;5052917;28;20102;-56
2022/03/02 07:35:00;;;;;;;35.50;16.15;;;;;;;;;;5058740;28;20029;-54
2022/03/02 07:37:27;;;;;;;36.45;16.20;;;;;;;;;;5064442;28;20043;-56
2022/03/02 07:39:54;;;;;;;38.38;16.90;;;;;;;;;;5062033;28;20032;-57
2022/03/02 07:42:19;;;;;;;37.95;16.83;;;;;;;;;;5055975;28;20032;-57
2022/03/02 07:44:46;;;;;;;42.70;18.33;;;;;;;;;;5064567;28;20020;-56
2022/03/02 07:47:12;;;;;;;40.08;17.83;;;;;;;;;;5060660;28;20115;-56
2022/03/02 07:49:37;;;;;;;41.53;17.63;;;;;;;;;;5064042;28;20116;-54
2022/03/02 07:52:07;;;;;;;49.35;20.42;;;;;;;;;;5053575;28;20031;-56
2022/03/02 07:54:37;;;;;;;;;;;;;;;;;;5062958;28;20036;-56
2022/03/02 07:57:04;;;;;;;;;;;;;;;;;;5061645;28;19938;-56
2022/03/02 07:59:36;;;;;;;30.40;15.20;;;;;;;;;;5052232;28;19913;-56
2022/03/02 08:02:03;;;;;;;37.67;15.27;;;;;;;;;;5055020;28;20037;-57
2022/03/02 08:04:31;;;;;;;38.45;16.35;;;;;;;;;;5059407;28;20021;-57
2022/03/02 08:06:56;;;;;;;40.15;18.25;;;;;;;;;;5065092;28;20035;-57
2022/03/02 08:09:22;;;;;;;42.92;18.83;;;;;;;;;;5056731;28;20025;-56
2022/03/02 08:11:47;;;;;;;47.45;20.58;;;;;;;;;;5055441;28;20032;-55
2022/03/02 08:14:13;;;;;;;45.30;19.42;;;;;;;;;;5063032;28;20057;-56
2022/03/02 08:16:39;;;;;;;38.83;19.83;;;;;;;;;;5062114;28;20056;-57
2022/03/02 08:19:05;;;;;;;39.05;19.33;;;;;;;;;;5055124;28;20037;-57
2022/03/02 08:21:32;;;;;;;41.63;18.35;;;;;;;;;;5060729;28;20033;-57
2022/03/02 08:24:02;;;;;;;41.45;18.50;;;;;;;;;;5061277;28;20029;-56
2022/03/02 08:26:32;;;;;;;42.63;18.00;;;;;;;;;;5057817;28;20024;-57
2022/03/02 08:29:02;;;;;;;39.95;18.17;;;;;;;;;;5052433;28;20466;-55
2022/03/02 08:31:29;;;;;;;45.92;18.73;;;;;;;;;;5052315;28;20091;-56
2022/03/02 08:33:56;;;;;;;37.72;17.55;;;;;;;;;;5060214;28;20031;-57
2022/03/02 08:36:24;;;;;;;37.70;16.90;;;;;;;;;;5063203;28;20020;-54
2022/03/02 08:38:50;;;;;;;34.47;17.00;;;;;;;;;;5059080;28;20031;-55
2022/03/02 08:41:17;;;;;;;40.38;17.58;;;;;;;;;;5058556;28;20032;-56
2022/03/02 08:43:44;;;;;;;40.28;17.58;;;;;;;;;;5055630;28;20032;-55
2022/03/02 08:46:10;;;;;;;46.35;18.70;;;;;;;;;;5051841;28;20024;-57
2022/03/02 08:48:35;;;;;;;47.47;19.10;;;;;;;;;;5049940;28;20503;-57
2022/03/02 08:51:02;;;;;;;37.47;18.70;;;;;;;;;;5058240;28;20066;-57
2022/03/02 08:53:28;;;;;;;39.40;17.55;;;;;;;;;;5053524;28;20499;-54
2022/03/02 08:55:58;;;;;;;36.10;17.35;;;;;;;;;;5058657;28;20024;-57
2022/03/02 08:58:24;;;;;;;39.33;17.25;;;;;;;;;;5055768;28;20024;-57
2022/03/02 09:00:52;;;;;;;37.13;16.63;;;;;;;;;;5055994;28;20025;-58
2022/03/02 09:03:20;;;;;;;36.00;16.63;;;;;;;;;;5064444;28;20127;-56
2022/03/02 09:05:47;;;;;;;39.92;15.75;;;;;;;;;;5064163;28;20078;-55
2022/03/02 09:08:13;;;;;;;34.83;16.73;;;;;;;;;;5057129;28;20111;-57
2022/03/02 09:10:39;;;;;;;35.05;17.50;;;;;;;;;;5059681;28;20218;-56
2022/03/02 09:13:04;;;;;;;38.58;17.52;;;;;;;;;;5061047;28;20020;-57
2022/03/02 09:15:30;;;;;;;39.90;17.55;;;;;;;;;;5060621;28;20071;-57
2022/03/02 09:17:55;;;;;;;38.58;17.85;;;;;;;;;;5055183;28;20036;-57
2022/03/02 09:20:23;;;;;;;42.20;18.75;;;;;;;;;;5055886;28;20040;-56
2022/03/02 09:22:51;;;;;;;41.70;19.00;;;;;;;;;;5062790;28;20499;-57
2022/03/02 09:25:16;;;;;;;47.03;20.13;;;;;;;;;;5056889;28;20037;-56
2022/03/02 09:27:43;;;;;;;50.45;19.83;;;;;;;;;;5056333;28;20108;-56
2022/03/02 09:30:10;;;;;;;38.95;20.60;;;;;;;;;;5057445;28;20055;-57
2022/03/02 09:32:41;;;;;;;46.25;21.67;;;;;;;;;;5060562;28;20028;-56
2022/03/02 09:35:11;;;;;;;43.75;19.15;;;;;;;;;;5062761;28;20032;-58
2022/03/02 09:37:41;;;;;;;42.35;19.85;;;;;;;;;;5054445;28;20029;-56
2022/03/02 09:40:19;;;;;;;43.55;19.90;;;;;;;;;;5060422;28;20029;-57
2022/03/02 09:42:53;;;;;;;41.90;19.77;;;;;;;;;;5055004;28;20427;-57
2022/03/02 09:45:20;;;;;;;35.83;19.38;;;;;;;;;;5052336;28;20120;-57
2022/03/02 09:47:50;;;;;;;35.55;19.48;;;;;;;;;;5060483;28;20032;-56
2022/03/02 09:50:18;;;;;;;38.97;18.67;;;;;;;;;;5062491;28;20024;-56
2022/03/02 09:52:46;;;;;;;37.67;18.80;;;;;;;;;;5057982;28;20064;-56
2022/03/02 09:55:14;;;;;;;37.70;18.63;;;;;;;;;;5056224;28;20024;-57
2022/03/02 09:57:46;;;;;;;36.90;19.15;;;;;;;;;;5049789;28;20037;-57
2022/03/02 10:00:14;;;;;;;37.03;18.35;;;;;;;;;;5060256;28;20381;-56
2022/03/02 10:02:42;;;;;;;33.22;17.67;;;;;;;;;;5060753;28;20032;-57
2022/03/02 10:05:15;;;;;;;32.53;18.45;;;;;;;;;;5059197;28;20021;-56
2022/03/02 10:07:53;;;;;;;35.53;19.73;;;;;;;;;;5053092;28;20499;-56
2022/03/02 10:10:22;;;;;;;42.53;19.35;;;;;;;;;;5061429;28;20040;-56
2022/03/02 10:12:48;;;;;;;;;;;;;;;;;;5059137;28;20041;-56
2022/03/02 10:15:14;;;;;;;31.52;17.55;;;;;;;;;;5059019;28;19912;-57
2022/03/02 10:17:45;;;;;;;33.75;17.63;;;;;;;;;;5059080;28;20056;-56
2022/03/02 10:20:14;;;;;;;32.40;17.17;;;;;;;;;;5061870;28;20032;-57
2022/03/02 10:22:40;;;;;;;33.40;18.03;;;;;;;;;;5065540;28;20064;-57
2022/03/02 10:25:11;;;;;;;33.78;17.52;;;;;;;;;;5060638;28;20334;-57
2022/03/02 10:28:06;;;;;;;32.35;18.35;;;;;;;;;;5053847;28;20396;-57
2022/03/02 10:30:37;;;;;;;33.40;17.70;;;;;;;;;;5058519;28;20030;-58
2022/03/02 10:33:17;;;;;;;33.80;18.00;;;;;;;;;;5061103;28;20498;-58
2022/03/02 10:35:50;;;;;;;35.60;19.05;;;;;;;;;;5064114;28;20087;-58
2022/03/02 10:38:28;;;;;;;37.35;18.90;;;;;;;;;;5059262;28;20032;-58
2022/03/02 10:40:59;;;;;;;33.03;17.98;;;;;;;;;;5057261;28;20033;-57
2022/03/02 10:43:40;;;;;;;34.17;18.50;;;;;;;;;;5056960;28;20036;-58
2022/03/02 10:46:09;;;;;;;35.28;18.05;;;;;;;;;;5058629;28;20111;-57
2022/03/02 10:48:41;;;;;;;31.70;18.67;;;;;;;;;;5061189;28;20044;-58
2022/03/02 10:51:08;;;;;;;30.98;18.67;;;;;;;;;;5060594;28;20283;-58
2022/03/02 10:53:37;;;;;;;30.85;18.48;;;;;;;;;;5063105;28;20056;-58
2022/03/02 10:56:04;;;;;;;34.55;19.75;;;;;;;;;;5055451;28;20108;-59
2022/03/02 10:58:31;;;;;;;30.95;18.20;;;;;;;;;;5056952;28;20029;-57
2022/03/02 11:00:59;;;;;;;31.70;18.20;;;;;;;;;;5063532;28;20071;-58
2022/03/02 11:03:28;;;;;;;31.90;18.13;;;;;;;;;;5066083;28;20047;-58
2022/03/02 11:06:00;;;;;;;35.20;19.47;;;;;;;;;;5061246;28;20052;-58
2022/03/02 11:08:26;;;;;;;33.72;19.63;;;;;;;;;;5059241;28;20279;-57
2022/03/02 11:10:52;;;;;;;30.35;18.00;;;;;;;;;;5062170;28;20039;-58
2022/03/02 11:13:21;;;;;;;30.63;18.85;;;;;;;;;;5059505;28;20028;-58
2022/03/02 11:15:52;;;;;;;29.85;17.95;;;;;;;;;;5053849;28;20028;-58
2022/03/02 11:18:30;;;;;;;28.20;16.90;;;;;;;;;;5058140;28;20040;-57
2022/03/02 11:21:06;;;;;;;28.25;16.27;;;;;;;;;;5057501;28;20075;-59
2022/03/02 11:23:40;;;;;;;32.38;17.70;;;;;;;;;;5057064;28;20021;-59
2022/03/02 11:26:08;;;;;;;30.20;17.55;;;;;;;;;;5058382;28;20033;-59
2022/03/02 11:28:35;;;;;;;31.33;17.77;;;;;;;;;;5062978;28;20107;-58
2022/03/02 11:31:05;;;;;;;29.20;17.70;;;;;;;;;;5056224;28;20455;-59
2022/03/02 11:33:31;;;;;;;33.25;18.20;;;;;;;;;;5059613;28;20112;-58
2022/03/02 11:36:09;;;;;;;31.33;17.63;;;;;;;;;;5061340;28;20029;-59
2022/03/02 11:38:35;;;;;;;31.20;16.50;;;;;;;;;;5061001;28;20036;-56
2022/03/02 11:41:01;;;;;;;29.05;16.80;;;;;;;;;;5057250;28;20025;-55
2022/03/02 11:43:30;;;;;;;22.30;12.63;;;;;;;;;;5061418;28;20024;-58
2022/03/02 11:46:01;;;;;;;23.58;15.07;;;;;;;;;;5060514;28;20047;-59
2022/03/02 11:48:30;;;;;;;27.17;15.77;;;;;;;;;;5053301;28;20020;-58
2022/03/02 11:51:01;;;;;;;27.88;16.50;;;;;;;;;;5051670;28;20020;-58
2022/03/02 11:53:36;;;;;;;27.60;15.98;;;;;;;;;;5058656;28;20017;-60
2022/03/02 11:56:02;;;;;;;25.95;15.23;;;;;;;;;;5051571;28;20035;-59
2022/03/02 11:59:17;;;;;;;27.10;15.73;;;;;;;;;;5055037;28;20021;-59
2022/03/02 12:01:48;;;;;;;28.40;16.67;;;;;;;;;;5058035;28;20542;-58
2022/03/02 12:04:14;;;;;;;32.30;17.98;;;;;;;;;;5062258;28;20120;-59
2022/03/02 12:06:47;;;;;;;28.90;17.48;;;;;;;;;;5057344;28;20029;-58
2022/03/02 12:09:42;;;;;;;28.23;16.02;;;;;;;;;;5057921;28;20366;-58
2022/03/02 12:12:08;;;;;;;26.90;16.10;;;;;;;;;;5046787;28;20036;-59
2022/03/02 12:14:40;;;;;;;30.27;16.63;;;;;;;;;;5057657;28;20051;-58
2022/03/02 12:17:18;;;;;;;27.48;17.05;;;;;;;;;;5053180;28;20503;-60
2022/03/02 12:19:58;;;;;;;28.98;16.05;;;;;;;;;;5053940;28;20484;-59
2022/03/02 12:22:32;;;;;;;28.65;16.65;;;;;;;;;;5054210;28;20163;-58
2022/03/02 12:24:58;;;;;;;29.17;17.02;;;;;;;;;;5061359;28;20061;-59
2022/03/02 12:27:24;;;;;;;30.52;17.33;;;;;;;;;;5056236;28;20044;-58
2022/03/02 12:29:59;;;;;;;30.00;16.65;;;;;;;;;;5051980;28;20036;-59
2022/03/02 12:32:29;;;;;;;28.80;17.35;;;;;;;;;;5052555;28;20549;-60
2022/03/02 12:34:57;;;;;;;32.30;17.80;;;;;;;;;;5055551;28;20111;-58
2022/03/02 12:37:22;;;;;;;30.63;16.95;;;;;;;;;;5060876;28;20024;-59
2022/03/02 12:39:49;;;;;;;29.35;17.13;;;;;;;;;;5064427;28;20028;-60
2022/03/02 12:42:16;;;;;;;28.73;16.73;;;;;;;;;;5057374;28;20040;-60
2022/03/02 12:44:50;;;;;;;32.15;16.83;;;;;;;;;;5052881;28;20035;-59
2022/03/02 12:47:21;;;;;;;29.63;16.60;;;;;;;;;;5060421;28;20067;-59
2022/03/02 12:49:51;;;;;;;28.10;16.52;;;;;;;;;;5058898;28;20120;-59
2022/03/02 12:52:18;;;;;;;28.13;16.77;;;;;;;;;;5058159;28;20025;-60
2022/03/02 12:54:44;;;;;;;33.90;18.00;;;;;;;;;;5056601;28;20029;-59
2022/03/02 12:57:13;;;;;;;31.10;17.58;;;;;;;;;;5062581;28;20495;-58
2022/03/02 12:59:40;;;;;;;28.08;17.27;;;;;;;;;;5062009;28;20442;-58
2022/03/02 13:02:12;;;;;;;34.45;18.83;;;;;;;;;;5062851;28;20036;-60
2022/03/02 13:04:40;;;;;;;30.10;17.25;;;;;;;;;;5060966;28;20024;-59
2022/03/02 13:07:14;;;;;;;32.80;18.27;;;;;;;;;;5059289;28;20040;-59
2022/03/02 13:09:48;;;;;;;33.95;17.35;;;;;;;;;;5054550;28;20024;-59
2022/03/02 13:12:40;;;;;;;40.53;19.45;;;;;;;;;;5060500;28;20060;-59
2022/03/02 13:15:32;;;;;;;32.65;16.15;;;;;;;;;;5059784;28;20024;-59
2022/03/02 13:18:07;;;;;;;32.10;17.52;;;;;;;;;;5058311;28;20041;-58
2022/03/02 13:20:34;;;;;;;30.13;17.50;;;;;;;;;;5055298;28;20106;-58
2022/03/02 13:23:32;;;;;;;32.78;17.27;;;;;;;;;;5058378;28;20115;-58
2022/03/02 13:25:58;;;;;;;37.05;17.05;;;;;;;;;;5041773;28;20072;-57
2022/03/02 13:28:27;;;;;;;35.00;17.58;;;;;;;;;;5056025;28;20060;-57
2022/03/02 13:31:18;;;;;;;34.42;18.10;;;;;;;;;;5057953;28;20032;-58
2022/03/02 13:34:02;;;;;;;33.67;16.77;;;;;;;;;;5060012;28;20029;-57
2022/03/02 13:36:39;;;;;;;30.17;16.73;;;;;;;;;;5047079;28;20033;-57
2022/03/02 13:39:20;;;;;;;30.58;16.80;;;;;;;;;;5061360;28;20484;-58
2022/03/02 13:41:51;;;;;;;34.53;16.20;;;;;;;;;;5056038;28;20112;-58
2022/03/02 13:44:22;;;;;;;33.25;16.80;;;;;;;;;;5061197;28;20028;-58
2022/03/02 13:47:13;;;;;;;34.22;17.75;;;;;;;;;;5063318;28;20028;-58
2022/03/02 13:49:53;;;;;;;31.35;17.33;;;;;;;;;;5062062;28;20404;-57
2022/03/02 13:52:20;;;;;;;32.30;15.95;;;;;;;;;;5064220;28;20035;-59
2022/03/02 13:54:46;;;;;;;28.92;17.08;;;;;;;;;;5059348;28;20052;-59
2022/03/02 13:57:32;;;;;;;32.50;17.08;;;;;;;;;;5061686;28;20029;-58
2022/03/02 14:00:19;;;;;;;29.98;16.67;;;;;;;;;;5058977;28;20035;-57
2022/03/02 14:02:46;;;;;;;31.20;16.58;;;;;;;;;;5065130;28;20395;-59
2022/03/02 14:05:12;;;;;;;32.53;16.60;;;;;;;;;;5060398;28;20029;-59
2022/03/02 14:07:38;;;;;;;28.45;15.63;;;;;;;;;;5061193;28;20031;-58
2022/03/02 14:10:08;;;;;;;27.83;15.73;;;;;;;;;;5061369;28;20021;-57
2022/03/02 14:12:57;;;;;;;30.02;16.98;;;;;;;;;;5057718;28;20067;-58
2022/03/02 14:15:26;;;;;;;33.70;17.67;;;;;;;;;;5060050;28;20418;-58
2022/03/02 14:17:52;;;;;;;31.90;17.02;;;;;;;;;;5063147;28;20123;-58
2022/03/02 14:20:28;;;;;;;30.52;16.35;;;;;;;;;;5056589;28;20535;-59
2022/03/02 14:23:06;;;;;;;28.27;15.95;;;;;;;;;;5057499;28;20116;-58
2022/03/02 14:25:32;;;;;;;27.38;16.50;;;;;;;;;;5063640;28;20024;-58